Echo Lake, Illinois
Current Conditions -  °F | °C
As of 6:52 AM on Tuesday 21 Oct 2014 (Local Time) from KPWK Reporting Station
Broken Clouds Broken Clouds  
Wind Chill: 43°   Ceiling: 4700
Heat Index: 47°   Visibility: 10mi
Dew Point: 40°   Wind: 9mph
Humidity: 77%   Direction: 340°NNW
Pressure: 30.11"   Gusts: NA
Location:  42.201°N, 88.0504°W
Report Text: KPWK 211152Z 34008KT 10SM BKN047 08/04 A3011 RMK AO2 SLP197 T00830044 10111 20078 51023
Loading
Personal Weather Stations






























Interactive Weather Map
Tropical Storm Tracking
New forecast layout! Learn more

10-Day Weather Forecast

Advertisements
Track Severe Weather on mobile